Time;durP1;ratioP1;P1;durP2;ratioP2;P2;SDS_P1;SDS_P2;PMS_P1;PMS_P2;Temp;Humidity;BMP_temperature;BMP_pressure;BME280_temperature;BME280_humidity;BME280_pressure;Samples;Min_cycle;Max_cycle;Signal;HPM_P1;HPM_P2
2022/06/26 00:02:15;;;;;;;4.17;3.77;;;21.10;99.90;;;;;;5017397;28;20499;-71
2022/06/26 00:04:42;;;;;;;4.80;3.37;;;21.00;99.90;;;;;;5015916;28;20548;-71
2022/06/26 00:07:09;;;;;;;3.83;3.40;;;21.10;99.90;;;;;;5016957;28;20540;-71
2022/06/26 00:09:36;;;;;;;4.50;4.07;;;21.30;99.90;;;;;;5023390;28;20556;-71
2022/06/26 00:12:03;;;;;;;5.40;4.20;;;21.20;99.90;;;;;;5013936;28;20502;-71
2022/06/26 00:14:32;;;;;;;3.90;3.53;;;21.20;99.90;;;;;;5016428;28;20480;-72
2022/06/26 00:16:58;;;;;;;3.70;3.23;;;21.20;99.90;;;;;;5009783;28;20464;-72
2022/06/26 00:19:25;;;;;;;3.97;3.60;;;21.50;99.90;;;;;;5008607;28;20461;-72
2022/06/26 00:21:52;;;;;;;7.07;3.67;;;21.70;99.90;;;;;;5019328;28;20494;-72
2022/06/26 00:24:19;;;;;;;5.20;4.60;;;21.80;99.90;;;;;;5018368;28;20540;-72
2022/06/26 00:26:46;;;;;;;4.33;4.00;;;21.70;99.90;;;;;;5015029;28;20460;-71
2022/06/26 00:29:13;;;;;;;4.73;4.33;;;21.70;99.90;;;;;;5015945;28;20553;-71
2022/06/26 00:31:42;;;;;;;5.97;5.37;;;21.70;99.90;;;;;;5014720;28;20560;-71
2022/06/26 00:34:09;;;;;;;9.40;7.13;;;21.50;99.90;;;;;;5014893;28;20483;-71
2022/06/26 00:36:36;;;;;;;10.20;9.10;;;21.50;99.90;;;;;;4996953;28;20497;-71
2022/06/26 00:39:03;;;;;;;10.97;9.83;;;21.30;99.90;;;;;;5012236;28;20944;-72
2022/06/26 00:41:30;;;;;;;11.20;9.00;;;21.30;99.90;;;;;;5011173;28;21029;-71
2022/06/26 00:43:56;;;;;;;15.63;11.60;;;21.10;99.90;;;;;;5013020;28;20492;-71
2022/06/26 00:46:25;;;;;;;14.30;10.10;;;20.90;99.90;;;;;;5016281;28;20962;-72
2022/06/26 00:48:54;;;;;;;13.20;11.83;;;20.80;99.90;;;;;;5019989;28;20468;-71
2022/06/26 00:51:21;;;;;;;12.10;8.90;;;20.80;99.90;;;;;;5022297;28;20963;-71
2022/06/26 00:53:48;;;;;;;11.80;9.00;;;20.70;99.90;;;;;;5021470;28;20580;-78
2022/06/26 00:56:15;;;;;;;16.00;10.17;;;20.80;99.90;;;;;;5016596;28;21019;-73
2022/06/26 00:58:42;;;;;;;13.67;8.93;;;20.80;99.90;;;;;;5015571;28;20464;-72
2022/06/26 01:01:09;;;;;;;10.57;8.20;;;20.90;99.90;;;;;;5017818;28;20603;-72
2022/06/26 01:03:36;;;;;;;11.50;9.30;;;20.90;99.90;;;;;;5012272;28;20484;-71
2022/06/26 01:06:06;;;;;;;10.63;8.30;;;21.00;99.90;;;;;;5016322;28;20460;-71
2022/06/26 01:08:34;;;;;;;9.93;8.07;;;21.00;99.90;;;;;;5013691;28;21139;-71
2022/06/26 01:11:17;;;;;;;9.50;7.67;;;21.00;99.90;;;;;;5014390;28;20837;-71
2022/06/26 01:13:45;;;;;;;8.97;7.73;;;21.00;99.90;;;;;;5015539;28;20472;-72
2022/06/26 01:16:13;;;;;;;11.43;8.20;;;21.00;99.90;;;;;;5011522;28;20467;-72
2022/06/26 01:18:40;;;;;;;13.67;9.80;;;20.90;99.90;;;;;;5011436;28;20457;-71
2022/06/26 01:21:08;;;;;;;10.23;7.23;;;20.90;99.90;;;;;;5013785;28;20555;-72
2022/06/26 01:23:36;;;;;;;12.17;9.00;;;21.00;99.90;;;;;;5013987;28;20503;-71
2022/06/26 01:26:04;;;;;;;8.43;6.87;;;21.10;99.90;;;;;;5021596;28;20847;-71
2022/06/26 01:28:32;;;;;;;8.43;7.33;;;21.00;99.90;;;;;;5011439;28;20493;-71
2022/06/26 01:30:59;;;;;;;8.27;7.03;;;20.90;99.90;;;;;;5016098;28;20856;-71
2022/06/26 01:33:26;;;;;;;9.00;8.10;;;20.90;99.90;;;;;;5014172;28;20477;-71
2022/06/26 01:35:53;;;;;;;8.70;6.87;;;21.10;99.90;;;;;;5018339;28;20491;-71
2022/06/26 01:38:22;;;;;;;8.30;6.10;;;20.90;99.90;;;;;;5017141;28;20468;-71
2022/06/26 01:40:52;;;;;;;7.47;6.77;;;20.80;99.90;;;;;;5019020;28;20968;-71
2022/06/26 01:43:21;;;;;;;9.37;7.00;;;21.00;99.90;;;;;;5013659;28;20484;-71
2022/06/26 01:45:49;;;;;;;9.67;7.40;;;21.00;99.90;;;;;;5020900;28;20459;-71
2022/06/26 01:48:17;;;;;;;7.93;7.07;;;21.00;99.90;;;;;;5017859;28;20463;-72
2022/06/26 01:50:45;;;;;;;7.93;7.00;;;21.10;99.90;;;;;;5018831;28;20469;-71
2022/06/26 01:53:13;;;;;;;7.23;6.00;;;20.90;99.90;;;;;;5020467;28;20507;-71
2022/06/26 01:55:40;;;;;;;9.13;8.20;;;20.90;99.90;;;;;;5014695;28;21166;-71
2022/06/26 01:58:09;;;;;;;8.60;7.73;;;20.70;99.90;;;;;;5016284;28;20459;-72
2022/06/26 02:00:39;;;;;;;11.30;8.57;;;20.50;99.90;;;;;;5016019;28;20983;-71
2022/06/26 02:03:06;;;;;;;10.80;9.03;;;20.50;99.90;;;;;;5022290;28;21154;-71
2022/06/26 02:05:33;;;;;;;9.83;8.37;;;20.50;99.90;;;;;;5019125;28;20852;-71
2022/06/26 02:08:00;;;;;;;8.83;6.97;;;20.40;99.90;;;;;;5018591;28;20548;-71
2022/06/26 02:15:57;;;;;;;8.87;6.80;;;19.80;99.90;;;;;;5005227;28;27136;-71
2022/06/26 02:18:24;;;;;;;11.30;7.40;;;19.60;99.90;;;;;;5019059;28;20570;-71
2022/06/26 02:20:51;;;;;;;8.23;7.27;;;19.80;99.90;;;;;;5019777;28;20946;-71
2022/06/26 02:23:19;;;;;;;9.17;6.67;;;20.00;99.90;;;;;;5020748;28;20822;-71
2022/06/26 02:25:46;;;;;;;8.17;7.13;;;20.00;99.90;;;;;;5013524;28;21033;-71
2022/06/26 02:28:16;;;;;;;10.80;7.70;;;20.10;99.90;;;;;;5017758;28;21073;-71
2022/06/26 02:30:42;;;;;;;10.17;7.40;;;20.10;99.90;;;;;;5017363;28;21550;-72
2022/06/26 02:33:09;;;;;;;10.63;7.50;;;20.10;99.90;;;;;;5021970;28;20482;-71
2022/06/26 02:35:36;;;;;;;7.87;7.10;;;20.00;99.90;;;;;;5027778;28;21015;-72
2022/06/26 02:38:03;;;;;;;9.63;6.60;;;20.10;99.90;;;;;;5024878;28;20475;-71
2022/06/26 02:40:32;;;;;;;6.97;6.27;;;20.10;99.90;;;;;;5006653;28;20462;-72
2022/06/26 02:42:59;;;;;;;7.70;6.60;;;20.00;99.90;;;;;;5013366;28;20576;-72
2022/06/26 02:45:27;;;;;;;7.83;6.97;;;19.90;99.90;;;;;;5016967;28;20460;-71
2022/06/26 02:47:54;;;;;;;7.33;5.93;;;20.00;99.90;;;;;;5013921;28;20836;-71
2022/06/26 02:50:21;;;;;;;10.40;5.67;;;19.90;99.90;;;;;;5012560;28;20857;-71
2022/06/26 02:52:48;;;;;;;7.70;6.63;;;20.00;99.90;;;;;;5020151;28;20477;-71
2022/06/26 02:55:15;;;;;;;7.90;6.17;;;20.10;99.90;;;;;;5015836;28;20500;-71
2022/06/26 02:57:42;;;;;;;7.90;5.97;;;20.10;99.90;;;;;;5021063;28;20897;-71
2022/06/26 03:00:10;;;;;;;6.13;5.37;;;20.00;99.90;;;;;;5008787;28;20469;-71
2022/06/26 03:02:39;;;;;;;10.03;6.30;;;20.00;99.90;;;;;;5011200;28;20511;-73
2022/06/26 03:05:07;;;;;;;7.70;6.40;;;20.00;99.90;;;;;;5017366;28;20488;-71
2022/06/26 03:07:34;;;;;;;10.13;6.97;;;19.90;99.90;;;;;;5018564;28;20754;-71
2022/06/26 03:10:01;;;;;;;6.13;5.53;;;20.00;99.90;;;;;;5015079;28;20468;-71
2022/06/26 03:12:28;;;;;;;8.60;7.23;;;20.10;99.90;;;;;;5019617;28;20496;-72
2022/06/26 03:14:55;;;;;;;6.30;5.53;;;20.10;99.90;;;;;;5014992;28;21037;-71
2022/06/26 03:17:22;;;;;;;6.03;5.43;;;20.10;99.90;;;;;;5021709;28;20465;-71
2022/06/26 03:19:50;;;;;;;7.60;6.20;;;20.00;99.90;;;;;;5016808;28;20448;-72
2022/06/26 03:22:17;;;;;;;7.30;6.03;;;19.90;99.90;;;;;;5016470;28;21225;-72
2022/06/26 03:24:45;;;;;;;6.17;5.20;;;19.80;99.90;;;;;;5010415;28;20966;-71
2022/06/26 03:27:12;;;;;;;7.67;6.97;;;19.90;99.90;;;;;;5021340;28;20823;-71
2022/06/26 03:29:39;;;;;;;11.10;6.63;;;19.80;99.90;;;;;;5014487;28;21143;-71
2022/06/26 03:32:06;;;;;;;6.33;5.40;;;19.70;99.90;;;;;;5020819;28;20563;-71
2022/06/26 03:34:33;;;;;;;6.50;5.07;;;19.70;99.90;;;;;;5012369;28;20457;-71
2022/06/26 03:37:02;;;;;;;6.33;5.23;;;19.60;99.90;;;;;;5015780;28;20560;-71
2022/06/26 03:39:29;;;;;;;6.67;5.80;;;19.60;99.90;;;;;;5020953;28;20528;-71
2022/06/26 03:42:00;;;;;;;6.37;5.50;;;19.70;99.90;;;;;;5023692;28;20481;-72
2022/06/26 03:44:27;;;;;;;6.50;4.37;;;19.90;99.90;;;;;;5021215;28;20461;-71
2022/06/26 03:46:54;;;;;;;6.67;5.33;;;19.80;99.90;;;;;;5009763;28;20464;-72
2022/06/26 03:49:22;;;;;;;9.53;5.63;;;19.90;99.90;;;;;;5010181;28;20470;-72
2022/06/26 03:51:49;;;;;;;6.33;5.70;;;19.80;99.90;;;;;;5015933;28;20491;-72
2022/06/26 03:54:19;;;;;;;6.33;5.60;;;19.90;99.90;;;;;;5016217;28;20539;-71
2022/06/26 03:56:46;;;;;;;6.47;5.00;;;20.00;99.90;;;;;;5016799;28;20509;-71
2022/06/26 03:59:13;;;;;;;5.90;4.97;;;20.00;99.90;;;;;;5015252;28;20465;-72
2022/06/26 04:01:40;;;;;;;5.77;5.23;;;19.90;99.90;;;;;;5015839;28;20588;-72
2022/06/26 04:04:07;;;;;;;5.10;3.97;;;19.90;99.90;;;;;;5011224;28;20552;-72
2022/06/26 04:06:34;;;;;;;5.43;4.93;;;19.90;99.90;;;;;;5014382;28;20457;-72
2022/06/26 04:09:01;;;;;;;6.53;4.47;;;19.80;99.90;;;;;;5016599;28;20556;-72
2022/06/26 04:11:29;;;;;;;6.63;5.17;;;19.90;99.90;;;;;;5019458;28;20464;-72
2022/06/26 04:13:56;;;;;;;6.33;4.73;;;20.00;99.90;;;;;;5014842;28;20829;-72
2022/06/26 04:16:23;;;;;;;5.60;3.83;;;20.00;99.90;;;;;;5017988;28;20485;-72
2022/06/26 04:18:50;;;;;;;5.60;3.80;;;20.00;99.90;;;;;;5009848;28;20479;-72
2022/06/26 04:21:17;;;;;;;5.60;5.00;;;20.00;99.90;;;;;;5012846;28;20566;-71
2022/06/26 04:23:44;;;;;;;6.77;4.37;;;19.90;99.90;;;;;;5015821;28;20505;-71
2022/06/26 04:26:11;;;;;;;5.43;4.50;;;19.80;99.90;;;;;;5006921;28;20452;-71
2022/06/26 04:28:39;;;;;;;7.63;5.30;;;19.90;99.90;;;;;;5013395;28;20457;-72
2022/06/26 04:31:06;;;;;;;4.83;4.10;;;19.90;99.90;;;;;;5013879;28;20943;-71
2022/06/26 04:33:33;;;;;;;5.07;4.20;;;20.10;99.90;;;;;;5014599;28;20477;-72
2022/06/26 04:36:00;;;;;;;6.60;4.80;;;20.10;99.90;;;;;;5015711;28;20472;-72
2022/06/26 04:38:27;;;;;;;5.43;4.37;;;20.20;99.90;;;;;;5015867;28;20466;-71
2022/06/26 04:40:54;;;;;;;5.43;4.53;;;20.20;99.90;;;;;;5019711;28;20794;-71
2022/06/26 04:43:21;;;;;;;4.73;4.20;;;20.00;99.90;;;;;;5014288;28;20562;-72
2022/06/26 04:45:49;;;;;;;5.13;4.27;;;19.90;99.90;;;;;;5022994;28;20976;-71
2022/06/26 04:48:16;;;;;;;7.97;5.30;;;20.00;99.90;;;;;;5015910;28;20547;-71
2022/06/26 04:50:43;;;;;;;5.57;4.00;;;20.10;99.90;;;;;;5014767;28;20465;-72
2022/06/26 04:53:10;;;;;;;5.33;4.10;;;20.30;99.90;;;;;;5015640;28;20568;-72
2022/06/26 04:55:37;;;;;;;6.17;4.40;;;20.20;99.90;;;;;;5019037;28;20476;-72
2022/06/26 04:58:04;;;;;;;6.23;4.93;;;20.40;99.90;;;;;;5007808;28;20479;-72
2022/06/26 05:00:31;;;;;;;4.23;3.83;;;20.40;99.90;;;;;;5015642;28;20461;-72
2022/06/26 05:03:00;;;;;;;7.63;5.00;;;20.30;99.90;;;;;;5021537;28;20500;-72
2022/06/26 05:05:27;;;;;;;6.93;4.53;;;20.30;99.90;;;;;;5023083;28;20483;-72
2022/06/26 05:07:53;;;;;;;5.13;4.47;;;20.30;99.90;;;;;;5029397;28;20552;-72
2022/06/26 05:10:21;;;;;;;4.47;4.00;;;20.40;99.90;;;;;;5025634;28;20522;-72
2022/06/26 05:12:48;;;;;;;6.83;4.50;;;20.30;99.90;;;;;;5027305;28;20565;-72
2022/06/26 05:15:15;;;;;;;7.77;4.40;;;20.40;99.90;;;;;;5016573;28;20500;-72
2022/06/26 05:17:42;;;;;;;5.63;4.70;;;20.50;99.90;;;;;;5030043;28;20457;-72
2022/06/26 05:20:11;;;;;;;4.27;3.70;;;20.80;99.90;;;;;;5025233;28;20461;-71
2022/06/26 05:22:38;;;;;;;5.80;4.70;;;20.90;99.90;;;;;;5025942;28;20476;-71
2022/06/26 05:25:05;;;;;;;7.17;4.90;;;21.10;99.90;;;;;;5027735;28;20457;-71
2022/06/26 05:27:32;;;;;;;5.97;4.87;;;21.30;99.90;;;;;;5028023;28;20514;-72
2022/06/26 05:29:59;;;;;;;10.17;3.90;;;21.60;99.90;;;;;;5028521;28;20460;-72
2022/06/26 05:32:26;;;;;;;9.63;3.60;;;21.70;99.90;;;;;;5010253;28;20617;-72
2022/06/26 05:34:53;;;;;;;5.40;3.97;;;22.00;99.90;;;;;;5029221;28;20543;-71
2022/06/26 05:37:21;;;;;;;4.83;3.77;;;21.80;99.90;;;;;;5028226;28;20837;-72
2022/06/26 05:39:48;;;;;;;6.57;3.73;;;21.80;99.90;;;;;;5016050;28;20456;-72
2022/06/26 05:42:15;;;;;;;7.57;4.80;;;21.60;99.90;;;;;;5025643;28;20495;-72
2022/06/26 05:44:42;;;;;;;5.60;4.23;;;21.60;99.90;;;;;;5016272;28;20469;-72
2022/06/26 05:47:09;;;;;;;4.00;3.70;;;21.70;99.90;;;;;;5021638;28;20583;-72
2022/06/26 05:49:36;;;;;;;6.60;4.83;;;21.90;99.90;;;;;;5018363;28;20461;-72
2022/06/26 05:52:02;;;;;;;6.30;5.23;;;22.00;99.90;;;;;;5016291;28;20918;-72
2022/06/26 05:54:31;;;;;;;6.60;4.90;;;21.90;99.90;;;;;;5015254;28;20952;-72
2022/06/26 05:56:58;;;;;;;6.70;5.10;;;21.60;99.90;;;;;;5014774;28;20481;-72
2022/06/26 05:59:25;;;;;;;6.20;5.60;;;21.70;99.90;;;;;;5010935;28;20475;-72
2022/06/26 06:01:51;;;;;;;6.50;5.90;;;21.80;99.90;;;;;;5016194;28;21490;-72
2022/06/26 06:04:18;;;;;;;6.80;5.60;;;21.60;99.90;;;;;;5020632;28;20462;-72
2022/06/26 06:06:45;;;;;;;6.27;5.67;;;21.40;99.90;;;;;;5014110;28;20475;-71
2022/06/26 06:09:12;;;;;;;7.93;6.33;;;21.40;99.90;;;;;;5017572;28;20467;-71
2022/06/26 06:11:41;;;;;;;6.97;6.27;;;21.20;99.90;;;;;;5013081;28;20491;-72
2022/06/26 06:14:08;;;;;;;9.00;6.70;;;21.10;99.90;;;;;;5026569;28;20486;-73
2022/06/26 06:16:35;;;;;;;6.37;5.30;;;21.20;99.90;;;;;;5031955;28;20512;-72
2022/06/26 06:19:02;;;;;;;6.37;4.20;;;21.40;99.90;;;;;;5027700;28;20518;-72
2022/06/26 06:21:29;;;;;;;6.80;4.97;;;21.40;99.90;;;;;;5029176;28;20445;-72
2022/06/26 06:23:56;;;;;;;6.63;5.00;;;21.30;99.90;;;;;;5030754;28;20950;-72
2022/06/26 06:26:23;;;;;;;5.40;4.80;;;21.10;99.90;;;;;;5023738;28;20543;-71
2022/06/26 06:28:51;;;;;;;5.70;4.83;;;21.00;99.90;;;;;;5018284;28;20446;-72
2022/06/26 06:31:18;;;;;;;7.47;6.70;;;20.90;99.90;;;;;;5022503;28;20482;-72
2022/06/26 06:33:45;;;;;;;5.40;4.73;;;20.90;99.90;;;;;;5020428;28;20916;-71
2022/06/26 06:36:12;;;;;;;5.93;5.43;;;21.10;99.90;;;;;;5014194;28;21002;-71
2022/06/26 06:38:39;;;;;;;6.20;5.60;;;21.20;99.90;;;;;;5021220;28;20484;-71
2022/06/26 06:41:06;;;;;;;9.57;6.03;;;21.30;99.90;;;;;;5010311;28;22040;-71
2022/06/26 06:43:33;;;;;;;6.93;6.07;;;21.20;99.90;;;;;;5029697;28;20836;-72
2022/06/26 06:46:01;;;;;;;8.40;6.23;;;21.20;99.90;;;;;;5017776;28;20492;-72
2022/06/26 06:48:28;;;;;;;5.50;5.00;;;21.10;99.90;;;;;;5026388;28;20983;-72
2022/06/26 06:50:55;;;;;;;5.30;4.80;;;21.00;99.90;;;;;;5024048;28;20479;-71
2022/06/26 06:53:22;;;;;;;5.83;5.23;;;20.80;99.90;;;;;;5023674;28;20476;-72
2022/06/26 06:55:49;;;;;;;5.17;4.60;;;20.90;99.90;;;;;;5020609;28;20575;-72
2022/06/26 06:58:16;;;;;;;4.80;4.40;;;20.90;99.90;;;;;;5025192;28;20582;-72
2022/06/26 07:00:43;;;;;;;10.03;6.20;;;20.90;99.90;;;;;;5021121;28;20473;-72
2022/06/26 07:03:11;;;;;;;7.27;5.07;;;21.10;99.90;;;;;;5019174;28;20492;-71
2022/06/26 07:05:38;;;;;;;5.97;4.43;;;20.90;99.90;;;;;;5029546;28;20456;-72
2022/06/26 07:08:06;;;;;;;4.03;3.73;;;20.90;99.90;;;;;;5022406;28;20461;-71
2022/06/26 07:10:33;;;;;;;5.70;4.80;;;21.10;99.90;;;;;;5028241;28;20544;-72
2022/06/26 07:13:01;;;;;;;4.90;4.30;;;21.20;99.90;;;;;;5018876;28;20482;-71
2022/06/26 07:15:28;;;;;;;5.63;4.33;;;21.20;99.90;;;;;;5022692;28;20456;-72
2022/06/26 07:17:55;;;;;;;11.80;4.77;;;21.10;99.90;;;;;;5017652;28;20485;-72
2022/06/26 07:20:23;;;;;;;6.20;5.30;;;21.20;99.90;;;;;;5014605;28;20465;-71
2022/06/26 07:22:50;;;;;;;4.97;4.53;;;21.20;99.90;;;;;;5020056;28;20470;-71
2022/06/26 07:25:17;;;;;;;4.67;4.27;;;21.30;99.90;;;;;;5004394;28;20698;-72
2022/06/26 07:27:45;;;;;;;5.07;4.30;;;21.30;99.90;;;;;;5008336;28;20544;-72
2022/06/26 07:30:12;;;;;;;5.40;4.27;;;21.80;99.90;;;;;;5010962;28;20922;-72
2022/06/26 07:32:39;;;;;;;5.33;4.83;;;22.40;99.90;;;;;;5023457;28;20481;-72
2022/06/26 07:35:07;;;;;;;5.20;4.17;;;22.30;99.90;;;;;;5016209;28;20463;-71
2022/06/26 07:37:35;;;;;;;5.67;5.07;;;22.40;99.90;;;;;;5007623;28;20487;-71
2022/06/26 07:40:02;;;;;;;4.83;4.30;;;22.60;99.90;;;;;;5010723;28;20469;-71
2022/06/26 07:42:29;;;;;;;5.37;4.70;;;22.40;99.90;;;;;;5009524;28;20480;-72
2022/06/26 07:44:55;;;;;;;5.10;4.60;;;22.00;99.90;;;;;;5007276;28;20859;-72
2022/06/26 07:47:22;;;;;;;3.87;3.57;;;22.40;99.90;;;;;;5018039;28;20680;-71
2022/06/26 07:49:49;;;;;;;4.20;3.80;;;23.50;99.90;;;;;;4991414;28;20648;-71
2022/06/26 07:52:17;;;;;;;9.23;3.27;;;24.00;99.90;;;;;;4998153;28;20507;-71
2022/06/26 07:54:45;;;;;;;4.97;4.30;;;23.80;99.90;;;;;;5011429;28;20572;-72
2022/06/26 07:57:12;;;;;;;4.57;4.17;;;23.70;99.90;;;;;;5028763;28;20584;-71
2022/06/26 07:59:39;;;;;;;3.93;3.63;;;23.60;99.90;;;;;;5027634;28;20440;-71
2022/06/26 08:02:06;;;;;;;5.33;4.50;;;24.30;99.90;;;;;;5026382;28;20463;-72
2022/06/26 08:04:33;;;;;;;6.03;5.60;;;25.50;99.90;;;;;;5026657;28;20445;-74
2022/06/26 08:07:00;;;;;;;3.43;3.13;;;26.40;99.90;;;;;;5029041;28;20436;-72
2022/06/26 08:09:27;;;;;;;3.70;2.90;;;27.40;99.90;;;;;;5027681;28;20463;-72
2022/06/26 08:11:56;;;;;;;6.20;3.30;;;28.40;99.90;;;;;;5025278;28;20489;-72
2022/06/26 08:14:22;;;;;;;3.90;3.60;;;28.60;99.90;;;;;;5029289;28;20444;-72
2022/06/26 08:16:49;;;;;;;4.17;3.03;;;28.30;99.90;;;;;;5028714;28;20493;-71
2022/06/26 08:19:16;;;;;;;3.50;3.20;;;28.40;99.90;;;;;;5021169;28;20465;-72
2022/06/26 08:22:01;;;;;;;3.53;3.23;;;28.80;99.90;;;;;;5023141;28;21102;-72
2022/06/26 08:24:28;;;;;;;4.37;3.83;;;28.60;99.90;;;;;;5029443;28;20456;-73
2022/06/26 08:26:57;;;;;;;3.63;3.33;;;27.70;99.90;;;;;;5028669;28;20547;-71
2022/06/26 08:29:23;;;;;;;4.60;4.20;;;26.90;99.90;;;;;;5025162;28;20452;-71
2022/06/26 08:31:50;;;;;;;6.90;4.90;;;26.40;99.90;;;;;;5029282;28;20551;-70
2022/06/26 08:34:17;;;;;;;6.20;5.10;;;26.00;99.90;;;;;;5025356;28;20569;-72
2022/06/26 08:36:44;;;;;;;5.50;5.00;;;26.50;99.90;;;;;;5027239;28;20477;-72
2022/06/26 08:39:11;;;;;;;5.90;5.30;;;27.50;99.90;;;;;;5022040;28;20459;-72
2022/06/26 08:41:41;;;;;;;7.80;6.20;;;27.20;99.90;;;;;;5028953;28;20566;-72
2022/06/26 08:44:10;;;;;;;7.50;6.33;;;26.70;99.90;;;;;;5025515;28;20468;-72
2022/06/26 08:46:39;;;;;;;7.00;6.30;;;26.30;99.90;;;;;;5024957;28;20472;-71
2022/06/26 08:49:11;;;;;;;8.43;6.17;;;26.60;99.90;;;;;;5011035;28;20554;-72
2022/06/26 08:51:39;;;;;;;6.70;6.10;;;27.20;99.90;;;;;;5024299;28;20464;-72
2022/06/26 08:54:09;;;;;;;6.50;5.77;;;27.30;99.90;;;;;;5026803;28;20829;-72
2022/06/26 08:56:38;;;;;;;4.77;4.37;;;28.00;99.90;;;;;;5026000;28;20486;-72
2022/06/26 08:59:05;;;;;;;4.93;4.43;;;27.60;99.90;;;;;;5026836;28;20520;-72
2022/06/26 09:01:33;;;;;;;4.13;3.73;;;27.20;99.90;;;;;;5023400;28;20456;-73
2022/06/26 09:04:00;;;;;;;4.60;4.00;;;26.70;99.90;;;;;;5024822;28;20452;-73
2022/06/26 09:06:28;;;;;;;6.90;4.37;;;26.10;99.90;;;;;;5026066;28;20545;-71
2022/06/26 09:08:55;;;;;;;7.00;5.97;;;25.80;99.90;;;;;;5027238;28;20463;-72
2022/06/26 09:11:22;;;;;;;6.23;5.63;;;26.90;99.90;;;;;;5018385;28;20476;-72
2022/06/26 09:13:53;;;;;;;8.40;6.30;;;27.40;99.90;;;;;;5023328;28;20552;-71
2022/06/26 09:16:29;;;;;;;5.67;5.10;;;27.90;99.90;;;;;;5022517;28;21129;-71
2022/06/26 09:19:07;;;;;;;5.00;4.50;;;27.60;99.90;;;;;;5027526;28;20583;-71
2022/06/26 09:21:34;;;;;;;24.87;4.87;;;26.90;99.90;;;;;;5030277;28;20626;-71
2022/06/26 09:24:00;;;;;;;6.83;4.93;;;26.30;99.90;;;;;;5027331;28;20522;-71
2022/06/26 09:26:27;;;;;;;4.93;4.10;;;26.00;99.90;;;;;;5026621;28;20960;-70
2022/06/26 09:28:54;;;;;;;4.10;3.70;;;25.40;99.90;;;;;;5020129;28;20548;-70
2022/06/26 09:31:23;;;;;;;3.97;3.13;;;25.00;99.90;;;;;;5025274;28;20483;-71
2022/06/26 09:33:50;;;;;;;4.30;3.90;;;24.80;99.90;;;;;;5027393;28;20475;-70
2022/06/26 09:36:19;;;;;;;4.47;3.90;;;24.90;99.90;;;;;;5029838;28;20440;-71
2022/06/26 09:38:51;;;;;;;4.10;3.27;;;24.90;99.90;;;;;;5023124;28;20496;-71
2022/06/26 09:41:29;;;;;;;4.03;3.70;;;24.90;99.90;;;;;;5029831;28;20523;-72
2022/06/26 09:43:57;;;;;;;5.43;4.13;;;24.60;99.90;;;;;;5021570;28;21251;-72
2022/06/26 09:46:30;;;;;;;4.80;4.40;;;24.40;99.90;;;;;;5024750;28;20457;-72
2022/06/26 09:48:58;;;;;;;4.67;4.00;;;24.20;99.90;;;;;;5028524;28;20487;-71
2022/06/26 09:51:27;;;;;;;4.40;3.23;;;24.10;99.90;;;;;;5031599;28;20532;-72
2022/06/26 09:53:55;;;;;;;4.77;4.37;;;24.20;99.90;;;;;;5046415;22;20502;-69
2022/06/26 09:56:22;;;;;;;6.13;4.13;;;24.30;99.90;;;;;;5043730;28;20479;-69
2022/06/26 09:58:51;;;;;;;6.63;4.77;;;24.20;99.90;;;;;;5044417;28;20657;-69
2022/06/26 10:06:52;;;;;;;7.10;3.23;;;23.60;99.90;;;;;;5047129;28;20516;-69
2022/06/26 10:09:20;;;;;;;6.03;3.50;;;23.60;99.90;;;;;;5043672;28;20539;-69
2022/06/26 10:11:47;;;;;;;3.93;2.90;;;23.90;99.90;;;;;;5047924;28;20536;-69
2022/06/26 10:14:20;;;;;;;4.43;3.97;;;24.20;99.90;;;;;;5047273;28;20534;-70
2022/06/26 10:17:29;;;;;;;5.20;3.23;;;24.30;99.90;;;;;;5047722;28;20960;-69
2022/06/26 10:19:58;;;;;;;3.33;3.03;;;24.40;99.90;;;;;;5025619;28;20490;-72
2022/06/26 10:22:26;;;;;;;3.27;2.97;;;24.20;99.90;;;;;;5040894;28;20471;-69
2022/06/26 10:24:56;;;;;;;3.13;2.83;;;24.10;99.90;;;;;;5042695;28;20518;-69
2022/06/26 10:27:25;;;;;;;7.70;3.07;;;24.10;99.90;;;;;;5042396;28;20911;-69
2022/06/26 10:30:05;;;;;;;2.83;2.63;;;23.90;99.90;;;;;;5040854;28;20476;-69
2022/06/26 10:32:32;;;;;;;3.60;3.30;;;24.00;99.90;;;;;;5045743;28;20547;-69
2022/06/26 10:34:59;;;;;;;3.33;3.00;;;24.20;99.90;;;;;;5045494;28;20571;-69
2022/06/26 10:37:28;;;;;;;3.70;2.43;;;24.30;99.90;;;;;;5046059;28;20485;-69
2022/06/26 10:39:55;;;;;;;3.20;2.90;;;23.90;99.90;;;;;;5040664;28;21061;-70
2022/06/26 10:45:11;;;;;;;5.40;2.50;;;24.10;99.90;;;;;;5044283;28;20820;-71
2022/06/26 10:47:46;;;;;;;3.07;2.77;;;24.30;99.90;;;;;;5046394;28;20805;-71
2022/06/26 10:50:34;;;;;;;2.60;2.40;;;24.20;99.90;;;;;;5044506;28;20502;-71
2022/06/26 10:53:21;;;;;;;3.93;3.53;;;24.00;99.90;;;;;;5042082;28;20539;-70
2022/06/26 10:55:50;;;;;;;3.67;2.70;;;23.90;99.90;;;;;;5043590;28;20444;-71
2022/06/26 10:58:23;;;;;;;3.77;3.07;;;23.80;99.90;;;;;;5043211;28;20579;-71
2022/06/26 11:00:51;;;;;;;4.97;2.77;;;23.60;99.90;;;;;;5043099;28;20526;-71
2022/06/26 11:03:19;;;;;;;3.03;2.73;;;23.30;99.90;;;;;;5046156;28;20558;-71
2022/06/26 11:05:57;;;;;;;3.40;3.10;;;23.40;99.90;;;;;;5045436;28;20484;-70
2022/06/26 11:08:33;;;;;;;3.27;2.97;;;23.70;99.90;;;;;;5039738;28;20535;-70
2022/06/26 11:11:05;;;;;;;3.40;2.17;;;23.60;99.90;;;;;;5044186;28;20436;-70
2022/06/26 11:13:33;;;;;;;2.57;2.37;;;23.70;99.90;;;;;;5042437;28;20504;-70
2022/06/26 11:16:00;;;;;;;2.63;2.30;;;23.90;99.90;;;;;;5045338;28;20455;-70
2022/06/26 11:18:32;;;;;;;3.40;2.37;;;24.00;99.90;;;;;;5042613;28;20578;-70
2022/06/26 11:21:02;;;;;;;1.97;1.63;;;24.20;99.90;;;;;;5045900;28;20444;-70
2022/06/26 11:23:32;;;;;;;1.77;1.67;;;24.30;99.90;;;;;;5044808;28;20840;-69
2022/06/26 11:26:02;;;;;;;3.13;1.83;;;24.60;99.90;;;;;;5041972;28;20965;-69
2022/06/26 11:28:30;;;;;;;2.33;1.90;;;24.80;99.90;;;;;;5044598;28;20516;-69
2022/06/26 11:30:58;;;;;;;2.63;2.40;;;25.30;99.90;;;;;;5042153;28;20452;-69
2022/06/26 11:33:26;;;;;;;4.60;2.03;;;25.70;99.90;;;;;;5045955;28;20483;-69
2022/06/26 11:35:54;;;;;;;3.77;1.30;;;25.80;99.90;;;;;;5041044;28;20556;-69
2022/06/26 11:38:22;;;;;;;1.90;1.60;;;25.80;99.90;;;;;;5040165;28;20509;-69
2022/06/26 11:40:51;;;;;;;2.27;1.90;;;26.00;99.90;;;;;;5044537;28;21915;-69
2022/06/26 11:43:20;;;;;;;3.40;1.77;;;26.10;99.90;;;;;;5045176;28;20999;-70
2022/06/26 11:45:47;;;;;;;3.07;2.10;;;26.20;99.90;;;;;;5044290;28;20465;-70
2022/06/26 11:48:17;;;;;;;3.40;1.90;;;26.60;99.90;;;;;;5044308;28;20448;-70
2022/06/26 11:50:46;;;;;;;2.13;1.93;;;27.10;99.90;;;;;;5045145;28;20436;-70
2022/06/26 11:53:19;;;;;;;1.90;1.40;;;26.70;99.90;;;;;;5042723;28;20464;-70
2022/06/26 11:55:49;;;;;;;2.03;1.93;;;26.60;99.90;;;;;;5044622;28;20544;-70
2022/06/26 11:58:18;;;;;;;2.40;2.17;;;27.10;99.90;;;;;;5040164;28;20483;-70
2022/06/26 12:00:45;;;;;;;2.80;1.63;;;27.20;99.90;;;;;;5043695;28;20441;-69
2022/06/26 12:03:14;;;;;;;2.07;1.80;;;27.30;99.90;;;;;;5035910;28;20471;-70
2022/06/26 12:05:42;;;;;;;2.10;1.90;;;27.20;99.90;;;;;;5043940;28;20977;-69
2022/06/26 12:08:16;;;;;;;2.10;1.90;;;26.90;99.90;;;;;;5043738;28;20454;-70
2022/06/26 12:10:43;;;;;;;2.70;1.70;;;26.80;99.90;;;;;;5039755;28;21014;-70
2022/06/26 12:13:23;;;;;;;3.87;2.17;;;26.70;99.90;;;;;;5043963;28;20989;-70
2022/06/26 12:15:50;;;;;;;3.80;2.50;;;26.90;99.90;;;;;;5039596;28;20448;-70
2022/06/26 12:18:17;;;;;;;3.70;3.00;;;26.40;99.90;;;;;;5041807;28;20494;-70
2022/06/26 12:20:44;;;;;;;3.33;2.07;;;26.60;99.90;;;;;;5044069;28;20554;-70
2022/06/26 12:23:12;;;;;;;2.93;2.50;;;26.40;99.90;;;;;;5044922;28;20870;-70
2022/06/26 12:25:42;;;;;;;2.27;2.03;;;26.20;99.90;;;;;;5044908;28;20951;-70
2022/06/26 12:28:09;;;;;;;3.30;2.03;;;26.00;99.90;;;;;;5042500;28;20513;-70
2022/06/26 12:30:40;;;;;;;1.90;1.70;;;25.90;99.90;;;;;;5042094;28;20460;-70
2022/06/26 12:33:08;;;;;;;3.50;1.97;;;25.80;99.90;;;;;;5043187;28;20936;-70
2022/06/26 12:35:35;;;;;;;3.70;2.30;;;25.60;99.90;;;;;;5043732;28;20945;-70
2022/06/26 12:38:03;;;;;;;2.90;2.33;;;25.60;99.90;;;;;;5043494;28;20476;-70
2022/06/26 12:40:34;;;;;;;2.20;2.00;;;25.40;99.90;;;;;;5040633;28;20464;-70
2022/06/26 12:43:01;;;;;;;1.90;1.70;;;25.40;99.90;;;;;;5044040;28;20954;-70
2022/06/26 12:45:28;;;;;;;2.00;1.80;;;25.50;99.90;;;;;;5043190;28;20555;-70
2022/06/26 12:47:57;;;;;;;2.00;1.70;;;25.40;99.90;;;;;;5042757;28;20873;-70
2022/06/26 12:50:24;;;;;;;4.07;2.40;;;25.10;99.90;;;;;;5043494;28;20894;-70
2022/06/26 12:52:51;;;;;;;2.40;1.90;;;25.00;99.90;;;;;;5042117;28;20471;-70
2022/06/26 12:55:17;;;;;;;2.20;1.80;;;25.20;99.90;;;;;;5039478;28;20479;-70
2022/06/26 12:57:45;;;;;;;2.73;1.87;;;25.20;99.90;;;;;;5038651;28;20479;-70
2022/06/26 13:00:12;;;;;;;3.63;2.17;;;25.20;99.90;;;;;;5041921;28;20474;-70
2022/06/26 13:02:39;;;;;;;2.13;1.93;;;25.20;99.90;;;;;;5040038;28;20452;-70
2022/06/26 13:05:08;;;;;;;4.13;2.23;;;25.00;99.90;;;;;;5041053;28;20566;-70